createdAt,value
2022-09-07T00:08:44.992Z,42.01
2022-09-07T00:18:51.759Z,42.40
2022-09-07T00:28:57.815Z,42.69
2022-09-07T00:39:03.046Z,43.30
2022-09-07T00:49:18.047Z,44.07
2022-09-07T00:59:27.552Z,44.60
2022-09-07T01:09:29.899Z,45.07
2022-09-07T01:19:49.572Z,45.01
2022-09-07T01:30:12.211Z,45.74
2022-09-07T01:40:19.657Z,45.83
2022-09-07T01:50:48.246Z,46.02
2022-09-07T02:00:55.819Z,46.85
2022-09-07T02:11:08.248Z,47.21
2022-09-07T02:21:13.520Z,47.01
2022-09-07T02:31:16.113Z,46.66
2022-09-07T02:41:38.418Z,46.47
2022-09-07T02:52:11.650Z,46.01
2022-09-07T03:02:44.699Z,45.72
2022-09-07T03:12:49.297Z,46.11
2022-09-07T03:22:52.458Z,46.34
2022-09-07T03:32:57.068Z,46.58
2022-09-07T03:42:59.060Z,46.34
2022-09-07T03:53:05.914Z,45.91
2022-09-07T04:03:08.043Z,45.66
2022-09-07T04:13:13.129Z,45.37
2022-09-07T04:23:18.741Z,42.87
2022-09-07T04:33:20.874Z,40.69
2022-09-07T04:43:26.441Z,39.29
2022-09-07T04:53:28.679Z,38.30
2022-09-07T05:03:32.929Z,37.91
2022-09-07T05:13:37.330Z,37.15
2022-09-07T05:23:42.056Z,37.20
2022-09-07T05:54:37.946Z,35.92
2022-09-07T06:04:42.399Z,35.56
2022-09-07T06:14:46.740Z,34.34
2022-09-07T06:24:48.959Z,33.61
2022-09-07T06:34:53.751Z,34.20
2022-09-07T06:44:55.834Z,32.75
2022-09-07T06:55:00.973Z,33.13
2022-09-07T07:05:09.558Z,33.88
2022-09-07T07:15:16.591Z,34.50
2022-09-07T07:25:19.419Z,33.78
2022-09-07T07:35:27.420Z,32.04
2022-09-07T07:56:01.137Z,30.46
2022-09-07T08:06:09.701Z,30.66
2022-09-07T08:16:17.050Z,30.27
2022-09-07T08:26:21.709Z,30.61
2022-09-07T08:36:28.671Z,29.80
2022-09-07T08:46:51.948Z,28.96
2022-09-07T09:07:51.592Z,29.26
2022-09-07T09:18:04.508Z,29.74
2022-09-07T09:28:12.039Z,29.66
2022-09-07T09:38:33.113Z,28.69
2022-09-07T09:48:42.714Z,28.86
2022-09-07T10:09:20.613Z,28.76
2022-09-07T10:19:33.040Z,28.79
2022-09-07T10:29:38.973Z,29.51
2022-09-07T10:40:22.083Z,27.99
2022-09-07T10:50:32.157Z,27.92
2022-09-07T11:00:43.183Z,27.71
2022-09-07T11:11:17.842Z,27.69
2022-09-07T11:31:52.568Z,27.84
2022-09-07T11:52:39.746Z,28.21
2022-09-07T12:03:02.364Z,27.75
2022-09-07T12:13:35.107Z,27.44
2022-09-07T12:23:48.700Z,27.23
2022-09-07T12:34:31.678Z,26.78
2022-09-07T12:44:40.474Z,26.94
2022-09-07T12:55:26.066Z,26.61
2022-09-07T13:05:54.453Z,27.00
2022-09-07T13:16:06.698Z,26.14
2022-09-07T13:26:49.352Z,26.12
2022-09-07T13:36:55.991Z,26.44
2022-09-07T13:47:10.804Z,26.73
2022-09-07T13:57:47.280Z,25.97
2022-09-07T14:07:52.778Z,26.23
2022-09-07T14:18:16.020Z,26.05
2022-09-07T14:28:33.259Z,26.16
2022-09-07T14:49:05.084Z,26.38
2022-09-07T14:59:37.008Z,26.30
2022-09-07T15:09:42.399Z,26.29
2022-09-07T15:19:44.664Z,26.48
2022-09-07T15:29:49.066Z,26.36
2022-09-07T15:39:52.732Z,26.36
2022-09-07T15:50:03.370Z,26.61
2022-09-07T16:00:07.102Z,26.28
2022-09-07T16:10:14.808Z,26.46
2022-09-07T16:20:17.217Z,27.20
2022-09-07T16:30:19.325Z,27.10
2022-09-07T16:40:25.757Z,27.04
2022-09-07T16:50:33.486Z,27.26
2022-09-07T17:00:42.782Z,27.94
2022-09-07T17:10:46.363Z,28.23
2022-09-07T17:20:58.872Z,28.36
2022-09-07T17:41:48.256Z,28.48
2022-09-07T17:51:50.278Z,28.63
2022-09-07T18:01:54.784Z,28.76
2022-09-07T18:11:56.820Z,29.30
2022-09-07T18:21:58.986Z,29.74
2022-09-07T18:32:08.710Z,30.26
2022-09-07T18:42:13.902Z,30.85
2022-09-07T19:02:43.692Z,31.64
2022-09-07T19:12:48.848Z,32.08
2022-09-07T19:22:51.250Z,32.43
2022-09-07T19:32:53.187Z,32.62
2022-09-07T19:43:00.656Z,32.75
2022-09-07T20:03:48.858Z,33.50
2022-09-07T20:13:59.847Z,33.46
2022-09-07T20:24:04.578Z,34.07
2022-09-07T20:34:06.593Z,34.29
2022-09-07T20:44:19.790Z,34.73
2022-09-07T20:54:49.190Z,34.90
2022-09-07T21:05:01.894Z,34.90
2022-09-07T21:15:05.382Z,35.06
2022-09-07T21:25:12.223Z,35.33
2022-09-07T21:46:16.726Z,35.86
2022-09-07T21:56:22.113Z,36.17
2022-09-07T22:06:28.286Z,36.77
2022-09-07T22:16:32.707Z,36.47
2022-09-07T22:26:39.719Z,37.34
2022-09-07T22:36:45.536Z,37.71
2022-09-07T22:46:50.080Z,37.68
2022-09-07T22:56:52.233Z,37.91
2022-09-07T23:06:54.201Z,38.11
2022-09-07T23:16:56.275Z,38.42
2022-09-07T23:26:58.449Z,38.51
2022-09-07T23:37:00.402Z,39.01
2022-09-07T23:47:04.730Z,39.19
2022-09-07T23:57:06.901Z,39.93
